Time;durP1;ratioP1;P1;durP2;ratioP2;P2;SDS_P1;SDS_P2;PMS_P1;PMS_P2;Temp;Humidity;BMP_temperature;BMP_pressure;BME280_temperature;BME280_humidity;BME280_pressure;Samples;Min_cycle;Max_cycle;Signal;HPM_P1;HPM_P2
2023/01/11 00:02:02;;;;;;;43.47;20.83;;;;;;;;;;6215886;23;20368;-71
2023/01/11 00:04:29;;;;;;;28.60;16.37;;;;;;;;;;6216162;23;20467;-71
2023/01/11 00:06:55;;;;;;;29.17;15.43;;;;;;;;;;6215892;23;20462;-72
2023/01/11 00:09:21;;;;;;;26.90;14.17;;;;;;;;;;6215885;23;20008;-72
2023/01/11 00:11:48;;;;;;;20.50;11.07;;;;;;;;;;6215722;23;20419;-71
2023/01/11 00:14:14;;;;;;;14.37;8.63;;;;;;;;;;6215848;23;20004;-71
2023/01/11 00:16:40;;;;;;;19.20;11.70;;;;;;;;;;6215950;23;20423;-71
2023/01/11 00:19:07;;;;;;;20.10;13.20;;;;;;;;;;6215798;23;20001;-71
2023/01/11 00:21:33;;;;;;;18.77;11.57;;;;;;;;;;6216119;23;20429;-71
2023/01/11 00:23:59;;;;;;;22.60;13.23;;;;;;;;;;6215952;23;20028;-71
2023/01/11 00:26:25;;;;;;;21.03;12.80;;;;;;;;;;6189195;23;20011;-72
2023/01/11 00:28:51;;;;;;;23.43;14.20;;;;;;;;;;6216067;23;20042;-72
2023/01/11 00:31:17;;;;;;;17.13;12.70;;;;;;;;;;6215664;23;20028;-72
2023/01/11 00:33:43;;;;;;;16.87;11.03;;;;;;;;;;6215265;23;20005;-72
2023/01/11 00:36:10;;;;;;;18.73;12.70;;;;;;;;;;6215623;23;20008;-71
2023/01/11 00:38:52;;;;;;;17.23;10.87;;;;;;;;;;6189005;23;20335;-72
2023/01/11 00:49:33;;;;;;;18.27;10.03;;;;;;;;;;6215924;23;20012;-71
2023/01/11 00:51:59;;;;;;;14.47;8.73;;;;;;;;;;6216316;23;20335;-71
2023/01/11 00:54:25;;;;;;;16.20;9.00;;;;;;;;;;6216637;23;20354;-72
2023/01/11 00:56:54;;;;;;;14.83;8.73;;;;;;;;;;6216521;23;20005;-72
2023/01/11 00:59:24;;;;;;;12.53;8.27;;;;;;;;;;6216025;23;19997;-71
2023/01/11 01:02:16;;;;;;;13.73;8.37;;;;;;;;;;6215363;23;20335;-71
2023/01/11 01:04:48;;;;;;;13.13;8.50;;;;;;;;;;6213479;23;20016;-71
2023/01/11 01:07:14;;;;;;;14.05;9.32;;;;;;;;;;6212621;23;20317;-71
2023/01/11 01:21:55;;;;;;;15.27;8.60;;;;;;;;;;6215366;23;20015;-71
2023/01/11 01:27:32;;;;;;;;;;;;;;;;;;;;;
2023/01/11 01:29:59;;;;;;;13.68;9.15;;;;;;;;;;6123066;23;20089;-72
2023/01/11 01:32:26;;;;;;;14.57;8.43;;;;;;;;;;6184649;23;20336;-71
2023/01/11 01:34:52;;;;;;;13.03;8.87;;;;;;;;;;6215670;23;19997;-71
2023/01/11 01:37:18;;;;;;;15.20;9.33;;;;;;;;;;6240000;23;20442;-70
2023/01/11 01:39:44;;;;;;;15.23;9.30;;;;;;;;;;6245500;23;20323;-71
2023/01/11 01:42:14;;;;;;;17.70;9.83;;;;;;;;;;6243721;23;20330;-71
2023/01/11 01:44:59;;;;;;;13.57;8.93;;;;;;;;;;6244881;23;20001;-71
2023/01/11 01:47:27;;;;;;;16.00;9.30;;;;;;;;;;6245577;23;20012;-71
2023/01/11 01:49:53;;;;;;;14.80;9.63;;;;;;;;;;6245505;23;20319;-72
2023/01/11 01:52:20;;;;;;;17.47;10.30;;;;;;;;;;6244961;23;20004;-71
2023/01/11 01:54:47;;;;;;;13.63;9.60;;;;;;;;;;6244958;23;20415;-71
2023/01/11 01:57:22;;;;;;;18.07;10.37;;;;;;;;;;6245079;23;20004;-71
2023/01/11 01:59:50;;;;;;;15.83;9.57;;;;;;;;;;6240810;23;20762;-71
2023/01/11 02:02:17;;;;;;;16.60;9.97;;;;;;;;;;6241957;23;20423;-71
2023/01/11 02:04:44;;;;;;;15.77;10.27;;;;;;;;;;6243555;23;20000;-72
2023/01/11 02:07:15;;;;;;;14.10;8.67;;;;;;;;;;6244750;23;20058;-72
2023/01/11 02:09:46;;;;;;;15.07;9.90;;;;;;;;;;6244983;23;20000;-71
2023/01/11 02:12:12;;;;;;;14.23;8.73;;;;;;;;;;6245242;23;20000;-69
2023/01/11 02:14:39;;;;;;;13.93;9.07;;;;;;;;;;6244494;23;20323;-71
2023/01/11 02:17:05;;;;;;;16.37;9.60;;;;;;;;;;6244700;23;19996;-71
2023/01/11 02:19:31;;;;;;;14.03;9.27;;;;;;;;;;6243200;23;20138;-72
2023/01/11 02:22:14;;;;;;;14.73;8.87;;;;;;;;;;6244311;23;20071;-72
2023/01/11 02:25:03;;;;;;;15.32;9.75;;;;;;;;;;6245178;23;20054;-72
2023/01/11 02:27:47;;;;;;;15.97;9.80;;;;;;;;;;6244002;23;20087;-70
2023/01/11 02:30:22;;;;;;;17.07;9.50;;;;;;;;;;6244738;23;20004;-72
2023/01/11 02:33:09;;;;;;;13.00;8.80;;;;;;;;;;6245039;23;20004;-71
2023/01/11 02:35:43;;;;;;;13.67;9.40;;;;;;;;;;6198408;23;20066;-72
2023/01/11 02:38:28;;;;;;;17.27;9.57;;;;;;;;;;6245752;23;20078;-71
2023/01/11 02:41:01;;;;;;;15.37;9.80;;;;;;;;;;6245642;23;20054;-72
2023/01/11 02:46:42;;;;;;;13.27;8.33;;;;;;;;;;6245504;23;20011;-71
2023/01/11 03:10:51;;;;;;;12.37;6.73;;;;;;;;;;6010073;23;20018;-71
2023/01/11 03:16:49;;;;;;;10.97;7.00;;;;;;;;;;6123559;23;20040;-71
2023/01/11 03:19:25;;;;;;;11.37;5.93;;;;;;;;;;6231944;23;20015;-71
2023/01/11 03:21:59;;;;;;;11.40;5.30;;;;;;;;;;6246414;23;20023;-71
2023/01/11 03:24:25;;;;;;;9.97;5.90;;;;;;;;;;6247137;23;20078;-71
2023/01/11 03:27:00;;;;;;;10.87;5.37;;;;;;;;;;6246829;23;20427;-71
2023/01/11 03:29:30;;;;;;;9.70;5.50;;;;;;;;;;6246705;23;20023;-71
2023/01/11 03:32:08;;;;;;;9.03;5.70;;;;;;;;;;6246923;23;20323;-71
2023/01/11 03:35:00;;;;;;;10.03;6.03;;;;;;;;;;6246841;23;20050;-71
2023/01/11 03:37:30;;;;;;;8.63;4.97;;;;;;;;;;6241980;23;20450;-71
2023/01/11 03:39:57;;;;;;;8.67;5.57;;;;;;;;;;6246567;23;20071;-71
2023/01/11 03:42:24;;;;;;;10.23;5.50;;;;;;;;;;6246882;23;20004;-71
2023/01/11 03:44:53;;;;;;;9.87;5.23;;;;;;;;;;6246316;23;20327;-71
2023/01/11 03:47:21;;;;;;;8.63;5.00;;;;;;;;;;6246081;23;20326;-71
2023/01/11 03:50:06;;;;;;;7.40;5.00;;;;;;;;;;6246561;23;20469;-71
2023/01/11 03:52:34;;;;;;;9.33;4.93;;;;;;;;;;6246033;23;20003;-71
2023/01/11 03:55:02;;;;;;;8.87;4.93;;;;;;;;;;6246371;23;20015;-71
2023/01/11 03:57:33;;;;;;;9.20;5.70;;;;;;;;;;6246299;23;20422;-71
2023/01/11 03:59:59;;;;;;;8.33;5.03;;;;;;;;;;6246286;23;20028;-71
2023/01/11 04:02:27;;;;;;;8.53;5.30;;;;;;;;;;6246473;23;20422;-71
2023/01/11 04:04:53;;;;;;;9.37;5.30;;;;;;;;;;6246510;23;20427;-71
2023/01/11 04:07:19;;;;;;;6.33;4.87;;;;;;;;;;6245577;23;20013;-71
2023/01/11 04:09:45;;;;;;;8.00;4.80;;;;;;;;;;6246496;23;20318;-71
2023/01/11 04:12:12;;;;;;;7.73;4.80;;;;;;;;;;6246539;23;20300;-71
2023/01/11 04:14:38;;;;;;;7.90;4.57;;;;;;;;;;6246805;23;20031;-71
2023/01/11 04:17:04;;;;;;;7.77;4.83;;;;;;;;;;6246381;23;20491;-71
2023/01/11 04:19:30;;;;;;;8.77;4.83;;;;;;;;;;6245932;23;20000;-71
2023/01/11 04:21:56;;;;;;;7.17;4.50;;;;;;;;;;6244299;23;20394;-72
2023/01/11 04:24:22;;;;;;;6.23;4.40;;;;;;;;;;6245088;23;20427;-72
2023/01/11 04:26:49;;;;;;;6.80;4.43;;;;;;;;;;6246036;23;20015;-71
2023/01/11 04:29:15;;;;;;;8.30;5.47;;;;;;;;;;6246765;23;20075;-71
2023/01/11 04:31:41;;;;;;;7.67;4.63;;;;;;;;;;6246474;23;20087;-71
2023/01/11 04:34:07;;;;;;;6.77;4.50;;;;;;;;;;6246690;23;19996;-71
2023/01/11 04:36:34;;;;;;;6.77;4.10;;;;;;;;;;6246955;23;20008;-71
2023/01/11 04:39:52;;;;;;;8.40;4.10;;;;;;;;;;6246532;23;20378;-71
2023/01/11 04:42:18;;;;;;;8.20;4.00;;;;;;;;;;6153609;23;20009;-71
2023/01/11 05:00:22;;;;;;;5.72;3.72;;;;;;;;;;6124236;23;20017;-71
2023/01/11 05:06:09;;;;;;;6.10;3.90;;;;;;;;;;6065603;23;20098;-71
2023/01/11 05:08:35;;;;;;;7.57;3.77;;;;;;;;;;6146728;23;20081;-71
2023/01/11 05:11:06;;;;;;;6.13;3.60;;;;;;;;;;6201446;23;20308;-70
2023/01/11 05:13:41;;;;;;;5.67;3.03;;;;;;;;;;6245281;23;20367;-71
2023/01/11 05:16:10;;;;;;;4.70;2.90;;;;;;;;;;6245358;23;20008;-71
2023/01/11 05:18:43;;;;;;;4.37;2.70;;;;;;;;;;6245290;23;20312;-71
2023/01/11 05:21:11;;;;;;;5.00;2.83;;;;;;;;;;6245223;23;20319;-71
2023/01/11 05:23:38;;;;;;;4.40;2.67;;;;;;;;;;6245602;23;20007;-71
2023/01/11 05:26:05;;;;;;;5.37;2.73;;;;;;;;;;6245355;23;20008;-71
2023/01/11 05:28:31;;;;;;;6.93;3.80;;;;;;;;;;6245419;23;20018;-71
2023/01/11 05:30:57;;;;;;;6.97;3.50;;;;;;;;;;6245310;23;20362;-71
2023/01/11 05:33:24;;;;;;;5.87;3.37;;;;;;;;;;6245645;23;20458;-70
2023/01/11 05:35:50;;;;;;;7.37;4.07;;;;;;;;;;6245452;23;20001;-71
2023/01/11 05:38:16;;;;;;;7.93;4.17;;;;;;;;;;6245608;23;20004;-72
2023/01/11 05:40:42;;;;;;;8.27;4.30;;;;;;;;;;6245600;23;20446;-71
2023/01/11 05:43:08;;;;;;;7.30;4.40;;;;;;;;;;6245362;23;20486;-71
2023/01/11 05:45:36;;;;;;;8.03;4.60;;;;;;;;;;6245633;23;20022;-71
2023/01/11 05:48:02;;;;;;;5.83;3.80;;;;;;;;;;6245435;23;20454;-71
2023/01/11 05:50:29;;;;;;;7.87;4.17;;;;;;;;;;6244748;23;20449;-71
2023/01/11 05:52:55;;;;;;;8.00;4.27;;;;;;;;;;6245357;23;20008;-71
2023/01/11 05:55:21;;;;;;;6.23;3.67;;;;;;;;;;6245351;23;20308;-72
2023/01/11 05:57:49;;;;;;;8.60;4.10;;;;;;;;;;6245547;23;20012;-71
2023/01/11 06:00:15;;;;;;;6.83;3.27;;;;;;;;;;6245233;23;20058;-71
2023/01/11 06:02:41;;;;;;;5.63;3.57;;;;;;;;;;6245110;23;20439;-71
2023/01/11 06:05:08;;;;;;;5.53;3.23;;;;;;;;;;6245430;23;20004;-71
2023/01/11 06:07:34;;;;;;;6.83;3.30;;;;;;;;;;6243611;23;20339;-71
2023/01/11 06:10:00;;;;;;;7.57;3.13;;;;;;;;;;6245737;23;20075;-71
2023/01/11 06:12:26;;;;;;;9.47;3.20;;;;;;;;;;6245508;23;20018;-71
2023/01/11 06:14:52;;;;;;;5.43;3.50;;;;;;;;;;6245731;23;20007;-71
2023/01/11 06:17:18;;;;;;;7.73;3.23;;;;;;;;;;6246314;23;20023;-70
2023/01/11 06:19:44;;;;;;;5.23;3.23;;;;;;;;;;6245542;23;20413;-70
2023/01/11 06:22:10;;;;;;;5.27;3.60;;;;;;;;;;6246348;23;20046;-71
2023/01/11 06:24:37;;;;;;;7.53;3.63;;;;;;;;;;6246356;23;20000;-71
2023/01/11 06:27:03;;;;;;;6.40;3.67;;;;;;;;;;6245480;23;20504;-71
2023/01/11 06:29:41;;;;;;;5.77;3.60;;;;;;;;;;6243658;23;20004;-71
2023/01/11 06:32:29;;;;;;;5.73;3.63;;;;;;;;;;6245914;23;20103;-71
2023/01/11 06:38:42;;;;;;;6.77;3.57;;;;;;;;;;6154961;23;20032;-71
2023/01/11 06:44:33;;;;;;;13.27;3.90;;;;;;;;;;6038747;23;20022;-71
2023/01/11 06:47:31;;;;;;;7.50;3.03;;;;;;;;;;6038074;23;20023;-71
2023/01/11 06:53:01;;;;;;;7.83;3.83;;;;;;;;;;6151415;23;20085;-71
2023/01/11 06:55:28;;;;;;;7.77;3.20;;;;;;;;;;6245674;23;20058;-71
2023/01/11 06:57:58;;;;;;;10.33;3.33;;;;;;;;;;6246466;23;20000;-70
2023/01/11 07:00:24;;;;;;;7.40;4.00;;;;;;;;;;6247053;23;20358;-70
2023/01/11 07:02:50;;;;;;;13.03;3.60;;;;;;;;;;6246888;23;20331;-71
2023/01/11 07:05:17;;;;;;;5.90;2.20;;;;;;;;;;6246942;23;20323;-71
2023/01/11 07:07:43;;;;;;;5.77;2.50;;;;;;;;;;6247115;23;20012;-70
2023/01/11 07:10:11;;;;;;;11.77;3.27;;;;;;;;;;6246996;23;20011;-71
2023/01/11 07:12:37;;;;;;;8.43;2.57;;;;;;;;;;6246874;23;20426;-71
2023/01/11 07:15:04;;;;;;;13.53;4.57;;;;;;;;;;6246832;23;20374;-70
2023/01/11 07:17:30;;;;;;;11.43;5.07;;;;;;;;;;6246971;23;19996;-69
2023/01/11 07:19:56;;;;;;;11.80;6.20;;;;;;;;;;6244124;23;20011;-69
2023/01/11 07:22:23;;;;;;;12.80;7.40;;;;;;;;;;6246061;23;20318;-69
2023/01/11 07:24:49;;;;;;;12.77;6.77;;;;;;;;;;6246281;23;20450;-69
2023/01/11 07:27:15;;;;;;;17.47;7.67;;;;;;;;;;6246536;23;20019;-70
2023/01/11 07:29:41;;;;;;;16.93;7.60;;;;;;;;;;6245728;23;20346;-69
2023/01/11 07:32:09;;;;;;;11.73;5.30;;;;;;;;;;6245995;23;20042;-75
2023/01/11 07:34:36;;;;;;;12.13;5.57;;;;;;;;;;6246425;23;20431;-69
2023/01/11 07:37:02;;;;;;;8.50;5.27;;;;;;;;;;6245971;23;20455;-69
2023/01/11 07:39:29;;;;;;;11.50;4.57;;;;;;;;;;6246199;23;20083;-69
2023/01/11 07:44:40;;;;;;;10.00;4.83;;;;;;;;;;6245792;23;20035;-65
2023/01/11 07:47:07;;;;;;;9.50;4.97;;;;;;;;;;6246066;23;20008;-66
2023/01/11 07:49:33;;;;;;;11.90;5.20;;;;;;;;;;6245876;23;20004;-66
2023/01/11 07:51:59;;;;;;;13.40;5.73;;;;;;;;;;6245959;23;19996;-66
2023/01/11 07:54:25;;;;;;;12.50;4.80;;;;;;;;;;6246338;23;20004;-66
2023/01/11 07:56:51;;;;;;;8.40;4.67;;;;;;;;;;6246016;23;20334;-66
2023/01/11 07:59:17;;;;;;;10.53;5.10;;;;;;;;;;6245461;23;20450;-66
2023/01/11 08:01:43;;;;;;;10.67;4.80;;;;;;;;;;6245415;23;20011;-65
2023/01/11 08:04:11;;;;;;;8.20;4.60;;;;;;;;;;6245662;23;19996;-67
2023/01/11 08:06:38;;;;;;;105.63;9.13;;;;;;;;;;6245634;23;20007;-67
2023/01/11 08:09:04;;;;;;;21.00;4.30;;;;;;;;;;6245614;23;20089;-67
2023/01/11 08:17:01;;;;;;;22.93;10.90;;;;;;;;;;6246709;23;20018;-66
2023/01/11 08:19:36;;;;;;;30.53;14.03;;;;;;;;;;6246491;23;20062;-66
2023/01/11 08:22:18;;;;;;;29.33;14.10;;;;;;;;;;6246185;23;20031;-67
2023/01/11 08:24:49;;;;;;;30.97;13.30;;;;;;;;;;6245810;23;20004;-66
2023/01/11 08:30:12;;;;;;;36.80;11.80;;;;;;;;;;6187906;23;20445;-67
2023/01/11 08:32:38;;;;;;;29.57;10.17;;;;;;;;;;6243950;23;20067;-67
2023/01/11 08:35:05;;;;;;;23.17;10.97;;;;;;;;;;6245546;23;20000;-67
2023/01/11 08:37:43;;;;;;;32.60;9.57;;;;;;;;;;6245353;22;20463;-68
2023/01/11 08:40:30;;;;;;;28.37;10.70;;;;;;;;;;6245109;23;20003;-68
2023/01/11 08:43:08;;;;;;;24.67;11.70;;;;;;;;;;6245452;23;20004;-68
2023/01/11 08:46:13;;;;;;;28.17;13.30;;;;;;;;;;6245220;23;20031;-67
2023/01/11 08:48:39;;;;;;;28.63;13.80;;;;;;;;;;6173235;23;20335;-66
2023/01/11 08:51:06;;;;;;;31.83;13.50;;;;;;;;;;6245378;23;20364;-66
2023/01/11 08:53:32;;;;;;;30.37;12.40;;;;;;;;;;6245614;23;20359;-69
2023/01/11 08:55:58;;;;;;;26.70;13.27;;;;;;;;;;6164178;23;20078;-68
2023/01/11 08:58:25;;;;;;;21.63;11.20;;;;;;;;;;6245912;23;20004;-67
2023/01/11 09:00:51;;;;;;;24.83;10.73;;;;;;;;;;6245684;23;20076;-68
2023/01/11 09:03:17;;;;;;;24.50;10.77;;;;;;;;;;6218716;23;20331;-68
2023/01/11 09:05:44;;;;;;;19.53;11.23;;;;;;;;;;6245514;23;20007;-68
2023/01/11 09:08:11;;;;;;;24.13;11.33;;;;;;;;;;6245590;23;20012;-68
2023/01/11 09:10:37;;;;;;;22.43;10.67;;;;;;;;;;6245782;23;20331;-68
2023/01/11 09:13:03;;;;;;;21.40;8.57;;;;;;;;;;6245323;23;20011;-68
2023/01/11 09:15:30;;;;;;;14.17;6.27;;;;;;;;;;6244647;23;20000;-68
2023/01/11 09:17:56;;;;;;;15.70;6.50;;;;;;;;;;6245300;23;20008;-68
2023/01/11 09:20:22;;;;;;;13.57;6.50;;;;;;;;;;6245716;23;19996;-68
2023/01/11 09:22:49;;;;;;;11.63;6.63;;;;;;;;;;6245508;23;20431;-67
2023/01/11 09:25:16;;;;;;;11.93;6.13;;;;;;;;;;6245510;23;20427;-67
2023/01/11 09:27:45;;;;;;;11.07;6.43;;;;;;;;;;6245254;23;20082;-67
2023/01/11 09:30:12;;;;;;;20.63;7.03;;;;;;;;;;6245539;23;20508;-67
2023/01/11 09:32:38;;;;;;;19.63;8.00;;;;;;;;;;6245317;23;20004;-67
2023/01/11 09:35:05;;;;;;;12.17;7.00;;;;;;;;;;6246001;23;20001;-67
2023/01/11 09:37:31;;;;;;;16.23;7.70;;;;;;;;;;6244469;22;20012;-67
2023/01/11 09:40:00;;;;;;;13.37;7.17;;;;;;;;;;6245386;23;20002;-67
2023/01/11 09:42:37;;;;;;;9.13;5.93;;;;;;;;;;6244837;23;20009;-67
2023/01/11 09:45:20;;;;;;;13.13;5.03;;;;;;;;;;6245123;23;20000;-67
2023/01/11 09:48:02;;;;;;;7.23;3.87;;;;;;;;;;6245510;23;20012;-67
2023/01/11 09:50:34;;;;;;;8.10;3.20;;;;;;;;;;6245661;23;20008;-67
2023/01/11 09:53:06;;;;;;;7.95;3.47;;;;;;;;;;6245477;23;20000;-67
2023/01/11 09:55:37;;;;;;;7.93;2.70;;;;;;;;;;6245960;23;20000;-67
2023/01/11 09:58:23;;;;;;;10.10;2.57;;;;;;;;;;6246316;23;20079;-67
2023/01/11 10:00:52;;;;;;;4.37;2.40;;;;;;;;;;6246208;23;20331;-67
2023/01/11 10:03:22;;;;;;;4.83;2.60;;;;;;;;;;6246041;23;20004;-67
2023/01/11 10:05:52;;;;;;;6.60;2.87;;;;;;;;;;6245913;23;20008;-67
2023/01/11 10:08:26;;;;;;;8.30;3.17;;;;;;;;;;6246315;23;20096;-67
2023/01/11 10:12:02;;;;;;;;;;;;;;;;;;;;;
2023/01/11 10:17:54;;;;;;;;;;;;;;;;;;6154426;23;20016;-67
2023/01/11 10:41:45;;;;;;;11.63;6.43;;;;;;;;;;5816684;24;20438;-68
2023/01/11 10:44:18;;;;;;;5.80;3.73;;;;;;;;;;5867708;24;20066;-67
2023/01/11 10:46:50;;;;;;;8.13;4.30;;;;;;;;;;6001814;23;20096;-67
2023/01/11 10:49:19;;;;;;;8.43;4.22;;;;;;;;;;6215309;23;20376;-67
2023/01/11 10:51:47;;;;;;;10.03;4.43;;;;;;;;;;6188170;23;20371;-67
2023/01/11 10:54:15;;;;;;;7.73;3.67;;;;;;;;;;6214981;23;20007;-67
2023/01/11 10:56:53;;;;;;;7.70;4.03;;;;;;;;;;6215556;23;20366;-67
2023/01/11 10:59:39;;;;;;;8.67;3.80;;;;;;;;;;6215094;23;20055;-68
2023/01/11 11:02:24;;;;;;;9.97;3.47;;;;;;;;;;6214966;23;20005;-68
2023/01/11 11:04:53;;;;;;;8.33;4.33;;;;;;;;;;6215125;23;20001;-67
2023/01/11 11:07:22;;;;;;;11.03;3.80;;;;;;;;;;6215153;23;20497;-67
2023/01/11 11:09:48;;;;;;;6.83;3.77;;;;;;;;;;6215024;23;20004;-67
2023/01/11 11:12:19;;;;;;;13.47;4.30;;;;;;;;;;6215030;23;20423;-68
2023/01/11 11:14:56;;;;;;;8.17;3.97;;;;;;;;;;6215139;23;20095;-67
2023/01/11 11:17:32;;;;;;;7.50;3.87;;;;;;;;;;6215820;23;20108;-67
2023/01/11 11:19:58;;;;;;;11.20;3.90;;;;;;;;;;6216697;23;20010;-67
2023/01/11 11:22:24;;;;;;;9.87;3.53;;;;;;;;;;6217051;23;20355;-67
2023/01/11 11:25:01;;;;;;;6.57;3.97;;;;;;;;;;6216864;23;20439;-67
2023/01/11 11:27:27;;;;;;;8.97;4.17;;;;;;;;;;6216403;23;20012;-67
2023/01/11 11:29:54;;;;;;;6.60;3.80;;;;;;;;;;6216684;23;20001;-68
2023/01/11 11:32:23;;;;;;;8.50;4.23;;;;;;;;;;6216306;23;20542;-68
2023/01/11 11:34:50;;;;;;;6.50;4.20;;;;;;;;;;6216575;23;20003;-68
2023/01/11 11:37:32;;;;;;;7.07;3.73;;;;;;;;;;6212715;23;20054;-68
2023/01/11 11:39:58;;;;;;;7.25;3.63;;;;;;;;;;6246462;23;20028;-67
2023/01/11 11:42:25;;;;;;;6.43;3.87;;;;;;;;;;6246427;23;20057;-68
2023/01/11 11:45:09;;;;;;;8.50;3.77;;;;;;;;;;6246784;23;20111;-68
2023/01/11 11:47:36;;;;;;;7.77;3.30;;;;;;;;;;6246670;23;20075;-67
2023/01/11 11:50:20;;;;;;;8.93;3.77;;;;;;;;;;6246740;23;20007;-67
2023/01/11 11:52:50;;;;;;;6.20;3.57;;;;;;;;;;6220067;23;20011;-67
2023/01/11 11:55:16;;;;;;;5.33;3.30;;;;;;;;;;6247225;23;19997;-67
2023/01/11 11:57:43;;;;;;;12.73;3.10;;;;;;;;;;6247563;23;20007;-67
2023/01/11 12:00:24;;;;;;;8.10;4.00;;;;;;;;;;6247220;23;19996;-67
2023/01/11 12:02:54;;;;;;;8.23;3.67;;;;;;;;;;6246725;23;20332;-67
2023/01/11 12:09:20;;;;;;;9.67;4.30;;;;;;;;;;6095250;23;20030;-67
2023/01/11 12:24:38;;;;;;;;;;;;;;;;;;;;;
2023/01/11 12:27:56;;;;;;;7.05;3.20;;;;;;;;;;5925563;24;20516;-67
2023/01/11 12:30:39;;;;;;;11.23;4.60;;;;;;;;;;5951437;24;20022;-67
2023/01/11 12:33:26;;;;;;;10.70;5.20;;;;;;;;;;6098275;23;20037;-68
2023/01/11 12:36:04;;;;;;;9.53;4.50;;;;;;;;;;6179196;22;20036;-67
2023/01/11 12:38:37;;;;;;;7.10;3.83;;;;;;;;;;6216088;23;20313;-68
2023/01/11 12:41:08;;;;;;;9.37;4.47;;;;;;;;;;6215587;23;20336;-67
2023/01/11 12:43:47;;;;;;;8.20;4.30;;;;;;;;;;6215969;23;20076;-68
2023/01/11 12:46:20;;;;;;;6.37;3.93;;;;;;;;;;6215611;23;20012;-67
2023/01/11 12:49:05;;;;;;;6.23;3.30;;;;;;;;;;6215846;23;20390;-67
2023/01/11 12:51:38;;;;;;;5.67;3.30;;;;;;;;;;6215574;23;20332;-67
2023/01/11 12:54:27;;;;;;;5.53;3.60;;;;;;;;;;6215303;23;20001;-67
2023/01/11 12:56:53;;;;;;;5.83;3.40;;;;;;;;;;6215080;23;20028;-67
2023/01/11 12:59:28;;;;;;;9.73;4.77;;;;;;;;;;6215595;23;20327;-67
2023/01/11 13:01:54;;;;;;;6.77;3.60;;;;;;;;;;6216026;23;20435;-67
2023/01/11 13:04:36;;;;;;;7.23;3.53;;;;;;;;;;6215785;23;20427;-67
2023/01/11 13:07:11;;;;;;;6.97;3.07;;;;;;;;;;6215209;23;20427;-67
2023/01/11 13:09:52;;;;;;;6.67;2.90;;;;;;;;;;6188307;23;20320;-67
2023/01/11 13:12:24;;;;;;;9.57;4.27;;;;;;;;;;6215564;23;20014;-68
2023/01/11 13:14:54;;;;;;;6.82;3.58;;;;;;;;;;6215388;23;20008;-68
2023/01/11 13:17:23;;;;;;;7.10;3.80;;;;;;;;;;6215271;23;20064;-68
2023/01/11 13:20:01;;;;;;;10.13;4.23;;;;;;;;;;6214963;23;20080;-68
2023/01/11 13:22:34;;;;;;;9.53;3.63;;;;;;;;;;6215055;23;19997;-68
2023/01/11 13:25:00;;;;;;;;;;;;;;;;;;6215717;23;20119;-68
2023/01/11 13:27:27;;;;;;;6.23;3.77;;;;;;;;;;6215236;23;19952;-67
2023/01/11 13:29:59;;;;;;;6.60;3.87;;;;;;;;;;6215494;23;20011;-68
2023/01/11 13:32:35;;;;;;;6.70;3.70;;;;;;;;;;6215695;23;20016;-68
2023/01/11 13:35:20;;;;;;;9.20;3.50;;;;;;;;;;6188091;23;20654;-68
2023/01/11 13:37:51;;;;;;;8.60;2.90;;;;;;;;;;6244338;23;20019;-68
2023/01/11 13:40:22;;;;;;;7.17;2.93;;;;;;;;;;6246007;23;19996;-67
2023/01/11 13:42:52;;;;;;;10.47;3.53;;;;;;;;;;6246517;23;20643;-68
2023/01/11 13:45:27;;;;;;;8.33;3.50;;;;;;;;;;6246234;23;20000;-68
2023/01/11 13:47:56;;;;;;;9.20;3.23;;;;;;;;;;6246494;23;20343;-68
2023/01/11 13:50:31;;;;;;;8.30;2.77;;;;;;;;;;6245962;23;20371;-68
2023/01/11 14:09:10;;;;;;;5.75;2.70;;;;;;;;;;5980580;24;20083;-68
2023/01/11 14:11:57;;;;;;;9.17;5.10;;;;;;;;;;5980210;23;20008;-68
2023/01/11 14:17:54;;;;;;;17.07;10.43;;;;;;;;;;5994853;23;20095;-68
2023/01/11 14:20:39;;;;;;;13.68;7.70;;;;;;;;;;5980001;23;20375;-68
2023/01/11 14:23:12;;;;;;;11.60;6.90;;;;;;;;;;6122972;23;20309;-68
2023/01/11 14:25:42;;;;;;;15.60;7.93;;;;;;;;;;6245336;23;20027;-68
2023/01/11 14:28:11;;;;;;;10.60;6.50;;;;;;;;;;6245010;23;20093;-68
2023/01/11 14:30:37;;;;;;;6.90;5.27;;;;;;;;;;6245368;23;20078;-68
2023/01/11 14:33:03;;;;;;;17.77;10.43;;;;;;;;;;6245180;23;20388;-68
2023/01/11 14:35:48;;;;;;;12.83;6.80;;;;;;;;;;6245303;23;20067;-68
2023/01/11 14:38:14;;;;;;;9.50;5.67;;;;;;;;;;6245263;23;20004;-68
2023/01/11 14:40:46;;;;;;;9.97;5.37;;;;;;;;;;6245332;23;20131;-68
2023/01/11 14:43:30;;;;;;;20.90;11.52;;;;;;;;;;6245214;23;20030;-68
2023/01/11 14:46:15;;;;;;;77.83;43.93;;;;;;;;;;6244899;23;20368;-68
2023/01/11 14:49:00;;;;;;;53.47;32.00;;;;;;;;;;6244154;23;20330;-68
2023/01/11 14:51:26;;;;;;;36.93;22.03;;;;;;;;;;6245413;23;20004;-68
2023/01/11 14:53:58;;;;;;;21.90;14.63;;;;;;;;;;6247347;23;20518;-68
2023/01/11 14:56:36;;;;;;;27.67;14.83;;;;;;;;;;6247225;23;20000;-68
2023/01/11 14:59:06;;;;;;;14.40;9.93;;;;;;;;;;6246721;23;20004;-67
2023/01/11 15:01:51;;;;;;;12.67;7.30;;;;;;;;;;6245920;23;21017;-67
2023/01/11 15:04:21;;;;;;;13.70;9.03;;;;;;;;;;6243862;23;20008;-68
2023/01/11 15:06:54;;;;;;;13.20;7.93;;;;;;;;;;6244051;23;20411;-68
2023/01/11 15:09:39;;;;;;;13.67;6.20;;;;;;;;;;6246763;23;20308;-68
2023/01/11 15:12:12;;;;;;;10.30;6.33;;;;;;;;;;6246358;23;20007;-68
2023/01/11 15:14:39;;;;;;;9.57;5.80;;;;;;;;;;6244446;23;20450;-68
2023/01/11 15:19:52;;;;;;;15.87;7.87;;;;;;;;;;6245736;23;20011;-68
2023/01/11 15:22:36;;;;;;;14.87;7.77;;;;;;;;;;6246061;23;20015;-68
2023/01/11 15:25:04;;;;;;;11.43;6.37;;;;;;;;;;6246291;23;20003;-67
2023/01/11 15:27:32;;;;;;;12.47;6.80;;;;;;;;;;6219489;23;20016;-68
2023/01/11 15:29:58;;;;;;;17.73;8.53;;;;;;;;;;6247590;23;21016;-68
2023/01/11 15:32:26;;;;;;;14.20;10.27;;;;;;;;;;6246687;23;20079;-68
2023/01/11 15:34:53;;;;;;;18.87;10.67;;;;;;;;;;6246735;23;19997;-68
2023/01/11 15:37:24;;;;;;;16.67;9.57;;;;;;;;;;6246508;23;20008;-68
2023/01/11 15:40:14;;;;;;;17.97;10.83;;;;;;;;;;6246535;23;20000;-68
2023/01/11 15:43:18;;;;;;;;;;;;;;;;;;;;;
2023/01/11 15:49:08;;;;;;;22.67;10.00;;;;;;;;;;6245969;23;20027;-67
2023/01/11 15:51:56;;;;;;;17.80;11.60;;;;;;;;;;6245886;23;20011;-69
2023/01/11 15:54:41;;;;;;;25.83;12.23;;;;;;;;;;6245374;23;20000;-68
2023/01/11 15:57:31;;;;;;;27.43;10.93;;;;;;;;;;6245600;23;20000;-68
2023/01/11 16:00:16;;;;;;;19.33;10.87;;;;;;;;;;6246161;23;20008;-68
2023/01/11 16:05:59;;;;;;;27.60;12.60;;;;;;;;;;6168646;23;20091;-68
2023/01/11 16:08:27;;;;;;;30.93;13.50;;;;;;;;;;6246795;23;20008;-68
2023/01/11 16:11:07;;;;;;;37.80;14.50;;;;;;;;;;6246306;23;20331;-68
2023/01/11 16:13:56;;;;;;;35.63;13.90;;;;;;;;;;6245912;23;20357;-68
2023/01/11 16:16:38;;;;;;;33.00;13.23;;;;;;;;;;6243187;23;20339;-68
2023/01/11 16:19:12;;;;;;;31.63;14.23;;;;;;;;;;6243100;23;20335;-68
2023/01/11 16:21:41;;;;;;;29.00;13.37;;;;;;;;;;6245171;23;20088;-68
2023/01/11 16:24:08;;;;;;;28.10;12.90;;;;;;;;;;6246032;23;20000;-68
2023/01/11 16:26:36;;;;;;;38.30;18.70;;;;;;;;;;6246162;23;20030;-68
2023/01/11 16:29:04;;;;;;;33.63;21.83;;;;;;;;;;6245799;23;20387;-68
2023/01/11 16:32:00;;;;;;;37.43;22.03;;;;;;;;;;6245996;23;20423;-68
2023/01/11 16:34:27;;;;;;;29.83;17.03;;;;;;;;;;6225843;23;20083;-68
2023/01/11 16:36:54;;;;;;;28.07;15.57;;;;;;;;;;6245680;23;20435;-69
2023/01/11 16:39:29;;;;;;;27.97;16.40;;;;;;;;;;6246073;23;20449;-69
2023/01/11 16:42:13;;;;;;;30.53;17.40;;;;;;;;;;6245864;23;20331;-69
2023/01/11 16:44:49;;;;;;;25.43;16.63;;;;;;;;;;6245695;23;20004;-68
2023/01/11 16:47:16;;;;;;;24.87;15.73;;;;;;;;;;6246020;23;20319;-67
2023/01/11 16:49:47;;;;;;;26.43;16.10;;;;;;;;;;6219112;23;20429;-69
2023/01/11 16:52:33;;;;;;;29.70;16.80;;;;;;;;;;6245484;23;20450;-68
2023/01/11 16:55:00;;;;;;;28.60;15.87;;;;;;;;;;6219072;23;20331;-68
2023/01/11 16:57:38;;;;;;;30.77;17.93;;;;;;;;;;6245790;23;20001;-68
2023/01/11 17:00:06;;;;;;;26.40;16.83;;;;;;;;;;6245378;23;20011;-69
2023/01/11 17:02:42;;;;;;;37.00;17.73;;;;;;;;;;6245559;23;20434;-68
2023/01/11 17:05:19;;;;;;;35.90;17.67;;;;;;;;;;6245888;23;20007;-68
2023/01/11 17:07:45;;;;;;;33.37;19.40;;;;;;;;;;6245364;23;20008;-68
2023/01/11 17:10:22;;;;;;;34.00;17.60;;;;;;;;;;6245560;23;20023;-68
2023/01/11 17:13:06;;;;;;;35.17;18.93;;;;;;;;;;6246163;23;20008;-68
2023/01/11 17:15:41;;;;;;;35.67;17.60;;;;;;;;;;6246013;23;20000;-68
2023/01/11 17:18:08;;;;;;;31.73;18.23;;;;;;;;;;6246267;23;20374;-68
2023/01/11 17:20:34;;;;;;;29.50;17.47;;;;;;;;;;6246449;23;20008;-68
2023/01/11 17:23:21;;;;;;;27.67;17.90;;;;;;;;;;6245412;23;20000;-69
2023/01/11 17:50:21;;;;;;;31.20;16.25;;;;;;;;;;6041946;23;20025;-68
2023/01/11 17:52:48;;;;;;;27.33;15.37;;;;;;;;;;6141495;23;20327;-68
2023/01/11 17:55:18;;;;;;;28.20;16.13;;;;;;;;;;6245168;23;19996;-68
2023/01/11 17:57:44;;;;;;;28.33;16.47;;;;;;;;;;6245335;23;20324;-69
2023/01/11 18:00:27;;;;;;;29.67;15.47;;;;;;;;;;6245504;23;20023;-69
2023/01/11 18:02:54;;;;;;;29.85;16.52;;;;;;;;;;6245555;23;20383;-68
2023/01/11 18:05:27;;;;;;;28.80;16.30;;;;;;;;;;6217827;23;20355;-68
2023/01/11 18:07:57;;;;;;;40.73;19.43;;;;;;;;;;6244851;23;20036;-68
2023/01/11 18:10:25;;;;;;;34.53;20.13;;;;;;;;;;6245686;23;20319;-68